This is the latest recevied weather packets stored in our database for station/object KF5WCW-1. If no packets are shown the sender has not sent any weather packets the latest 10 day(s).
| Time | Temp. | Humidity | Pressure | Rain* | Wind** | Luminosity | Snow |
|---|---|---|---|---|---|---|---|
| 1777281088 | 3.89° C | 64% | 0 hPa | 0 mm | - | - | - |
| 1777280788 | 3.89° C | 67% | 0 hPa | 0 mm | - | - | - |
| 1777280488 | 4.44° C | 58% | 0 hPa | 0 mm | - | - | - |
| 1777280188 | 3.89° C | 62% | 0 hPa | 0 mm | - | - | - |
| 1777279888 | 3.89° C | 65% | 0 hPa | 0 mm | - | - | - |
| 1777279588 | 3.33° C | 68% | 0 hPa | 0 mm | - | - | - |
| 1777279288 | 3.89° C | 66% | 0 hPa | 0 mm | - | - | - |
| 1777278988 | 3.89° C | 67% | 0 hPa | 0 mm | - | - | - |
| 1777278688 | 3.89° C | 63% | 0 hPa | 0 mm | - | - | - |
| 1777278388 | 3.33° C | 67% | 0 hPa | 0 mm | - | - | - |
| 1777278088 | 2.78° C | 72% | 0 hPa | 0 mm | - | - | - |
| 1777277788 | 3.33° C | 73% | 0 hPa | 0 mm | - | - | - |
| 1777277488 | 3.33° C | 70% | 0 hPa | 0 mm | - | - | - |
| 1777277188 | 3.33° C | 71% | 0 hPa | 0 mm | - | - | - |
| 1777276888 | 4.44° C | 66% | 0 hPa | 0 mm | - | - | - |
| 1777276588 | 3.89° C | 63% | 0 hPa | 0 mm | - | - | - |
| 1777276288 | 3.89° C | 69% | 0 hPa | 0 mm | - | - | - |
| 1777275988 | 3.89° C | 67% | 0 hPa | 0 mm | - | - | - |
| 1777275688 | 3.89° C | 64% | 0 hPa | 0 mm | - | - | - |
| 1777275388 | 3.33° C | 74% | 0 hPa | 0 mm | - | - | - |
| 1777275088 | 2.78° C | 75% | 0 hPa | 0 mm | - | - | - |
| 1777274788 | 2.78° C | 79% | 0 hPa | 0 mm | - | - | - |
| 1777274488 | 2.78° C | 80% | 0 hPa | 0 mm | - | - | - |
| 1777274188 | 3.33° C | 74% | 0 hPa | 0 mm | - | - | - |
| 1777273888 | 3.33° C | 72% | 0 hPa | 0 mm | - | - | - |
* Rain latest hour (hover to see other rain measurements)
** Current wind speed in m/s (hover to see current wind gust speed)